Time;durP1;ratioP1;P1;durP2;ratioP2;P2;SDS_P1;SDS_P2;PMS_P1;PMS_P2;Temp;Humidity;BMP_temperature;BMP_pressure;BME280_temperature;BME280_humidity;BME280_pressure;Samples;Min_cycle;Max_cycle;Signal;HPM_P1;HPM_P2
2021/12/18 00:01:24;;;;;;;6.03;4.15;;;18.00;57.30;;;;;;5004609;28;20109;-63
2021/12/18 00:03:50;;;;;;;7.13;4.95;;;18.10;57.30;;;;;;4999805;28;20026;-63
2021/12/18 00:06:15;;;;;;;6.45;4.60;;;18.10;57.40;;;;;;5004317;28;20034;-60
2021/12/18 00:08:41;;;;;;;7.88;4.95;;;18.10;57.30;;;;;;5003640;28;20042;-61
2021/12/18 00:11:07;;;;;;;6.97;4.80;;;18.10;57.30;;;;;;5002583;28;20034;-61
2021/12/18 00:13:32;;;;;;;5.78;3.65;;;18.10;57.20;;;;;;5004335;28;20216;-61
2021/12/18 00:15:58;;;;;;;6.10;4.53;;;18.10;57.20;;;;;;5002518;28;20030;-60
2021/12/18 00:18:24;;;;;;;6.78;4.63;;;18.10;57.10;;;;;;5003523;28;20040;-61
2021/12/18 00:20:49;;;;;;;5.68;4.35;;;18.10;57.20;;;;;;5006429;28;20033;-60
2021/12/18 00:23:15;;;;;;;6.32;4.28;;;18.10;57.10;;;;;;5004839;28;20435;-61
2021/12/18 00:25:40;;;;;;;6.45;4.05;;;18.10;57.10;;;;;;5015380;28;20580;-61
2021/12/18 00:28:06;;;;;;;5.65;4.32;;;18.10;57.00;;;;;;5007754;28;20037;-63
2021/12/18 00:30:33;;;;;;;5.72;4.25;;;18.10;57.00;;;;;;5007061;28;20582;-60
2021/12/18 00:32:58;;;;;;;7.00;5.07;;;18.10;56.90;;;;;;5004209;28;20058;-62
2021/12/18 00:35:24;;;;;;;6.38;4.03;;;18.10;56.90;;;;;;5006047;28;20060;-63
2021/12/18 00:37:49;;;;;;;5.15;4.50;;;18.10;57.00;;;;;;5005742;28;20038;-63
2021/12/18 00:40:27;;;;;;;5.57;4.25;;;18.10;56.90;;;;;;5006607;28;20429;-62
2021/12/18 00:43:02;;;;;;;7.57;4.53;;;18.10;56.90;;;;;;5003356;28;20245;-64
2021/12/18 00:45:29;;;;;;;5.20;3.97;;;18.10;56.90;;;;;;5007382;28;20496;-63
2021/12/18 00:47:54;;;;;;;6.32;4.68;;;18.10;56.90;;;;;;5006597;28;20038;-63
2021/12/18 00:50:22;;;;;;;5.70;4.20;;;18.00;56.80;;;;;;5002327;28;20531;-63
2021/12/18 00:52:47;;;;;;;6.47;4.47;;;18.10;56.80;;;;;;5021395;28;20033;-63
2021/12/18 00:55:14;;;;;;;6.50;4.63;;;18.00;56.80;;;;;;5005804;28;20025;-64
2021/12/18 00:57:40;;;;;;;6.32;4.60;;;18.00;56.80;;;;;;5007739;28;20053;-63
2021/12/18 01:00:07;;;;;;;7.45;4.18;;;18.00;56.80;;;;;;5006531;28;20030;-63
2021/12/18 01:02:32;;;;;;;7.32;4.78;;;18.00;56.80;;;;;;5021547;28;20032;-63
2021/12/18 01:04:58;;;;;;;5.18;4.63;;;18.00;56.70;;;;;;5006605;28;20026;-63
2021/12/18 01:07:24;;;;;;;5.90;4.30;;;18.10;56.80;;;;;;5005961;28;20046;-63
2021/12/18 01:10:02;;;;;;;6.45;4.90;;;18.10;56.80;;;;;;5005933;28;20076;-64
2021/12/18 01:12:34;;;;;;;6.47;4.43;;;18.10;56.70;;;;;;5007872;28;20044;-64
2021/12/18 01:15:14;;;;;;;4.88;4.35;;;18.00;56.60;;;;;;5007737;28;20026;-63
2021/12/18 01:23:08;;;;;;;4.40;3.92;;;18.00;56.70;;;;;;5006127;28;20103;-61
2021/12/18 01:25:33;;;;;;;4.65;4.22;;;18.00;56.70;;;;;;5006600;28;20503;-63
2021/12/18 01:27:59;;;;;;;5.55;4.13;;;18.00;56.70;;;;;;5007150;28;20030;-64
2021/12/18 01:30:24;;;;;;;4.70;4.30;;;18.00;56.70;;;;;;5006016;28;20038;-63
2021/12/18 01:32:50;;;;;;;5.35;4.15;;;18.00;56.70;;;;;;5006702;28;20081;-64
2021/12/18 01:35:16;;;;;;;3.85;3.42;;;18.00;56.70;;;;;;5006285;28;20042;-64
2021/12/18 01:37:42;;;;;;;5.55;4.18;;;18.00;56.70;;;;;;5021373;28;20029;-63
2021/12/18 01:40:08;;;;;;;4.32;3.70;;;18.00;56.70;;;;;;4988558;28;20107;-62
2021/12/18 01:43:29;;;;;;;4.40;3.72;;;18.00;56.80;;;;;;5006844;28;20103;-64
2021/12/18 01:53:28;;;;;;;6.07;4.00;;;18.10;56.60;;;;;;5004581;28;20044;-63
2021/12/18 01:55:54;;;;;;;5.50;3.88;;;18.10;56.70;;;;;;5006428;28;20026;-62
2021/12/18 01:58:22;;;;;;;5.43;3.78;;;18.00;56.60;;;;;;5005255;28;20086;-63
2021/12/18 02:00:48;;;;;;;4.20;3.80;;;18.10;56.60;;;;;;5005833;28;20058;-60
2021/12/18 02:03:13;;;;;;;5.53;4.20;;;18.10;56.50;;;;;;5005334;28;20053;-62
2021/12/18 02:05:39;;;;;;;4.13;3.60;;;18.10;56.50;;;;;;5006172;28;20578;-62
2021/12/18 02:08:05;;;;;;;4.45;3.72;;;18.00;56.50;;;;;;5006120;28;20046;-60
2021/12/18 02:10:42;;;;;;;4.22;3.83;;;18.10;56.50;;;;;;5004594;28;20539;-64
2021/12/18 02:13:36;;;;;;;4.80;3.50;;;18.10;57.10;;;;;;5005827;28;20534;-62
2021/12/18 02:21:31;;;;;;;3.58;3.22;;;18.00;56.60;;;;;;5001878;28;20128;-63
2021/12/18 02:23:56;;;;;;;4.95;3.17;;;18.00;56.70;;;;;;5004598;28;20022;-63
2021/12/18 02:26:23;;;;;;;4.93;3.45;;;17.90;56.60;;;;;;5005517;28;20042;-63
2021/12/18 02:28:50;;;;;;;4.72;3.40;;;17.90;56.60;;;;;;5004678;28;20044;-63
2021/12/18 02:31:15;;;;;;;5.05;3.60;;;17.90;56.70;;;;;;5019269;28;20022;-63
2021/12/18 02:33:41;;;;;;;3.72;3.10;;;17.90;56.70;;;;;;5005396;28;20133;-63
2021/12/18 02:36:09;;;;;;;4.13;3.13;;;17.90;56.70;;;;;;5005436;28;20038;-63
2021/12/18 02:43:40;;;;;;;3.60;3.20;;;17.90;56.70;;;;;;5004489;28;20029;-63
2021/12/18 02:46:07;;;;;;;3.50;3.08;;;17.90;56.70;;;;;;5005105;28;20088;-64
2021/12/18 02:48:37;;;;;;;4.60;3.80;;;17.90;56.70;;;;;;5019984;28;20070;-64
2021/12/18 02:51:03;;;;;;;4.28;3.83;;;17.90;56.70;;;;;;5004225;28;20660;-63
2021/12/18 02:53:29;;;;;;;3.35;3.03;;;17.90;56.70;;;;;;5003152;28;20038;-63
2021/12/18 02:55:59;;;;;;;3.35;3.05;;;17.90;56.70;;;;;;5004437;28;20032;-62
2021/12/18 02:58:25;;;;;;;4.63;4.03;;;17.90;56.70;;;;;;5020137;28;20034;-63
2021/12/18 03:00:51;;;;;;;4.20;2.97;;;17.90;56.70;;;;;;5004171;28;20416;-63
2021/12/18 03:03:17;;;;;;;3.97;3.58;;;17.90;56.60;;;;;;5002852;28;20050;-63
2021/12/18 03:05:58;;;;;;;2.83;2.58;;;17.90;56.70;;;;;;5004484;28;20045;-63
2021/12/18 03:08:37;;;;;;;3.17;2.85;;;17.90;56.70;;;;;;5003167;28;20100;-63
2021/12/18 03:20:36;;;;;;;3.78;2.97;;;17.90;56.70;;;;;;5005101;28;20041;-63
2021/12/18 03:22:47;;;;;;;2.95;2.65;;;17.90;56.70;;;;;;5002571;28;20030;-63
2021/12/18 03:25:39;;;;;;;2.80;2.60;;;17.90;56.70;;;;;;5000781;28;20046;-63
2021/12/18 03:27:59;;;;;;;3.22;2.80;;;17.80;56.60;;;;;;5002765;28;20117;-65
2021/12/18 03:30:25;;;;;;;3.88;2.92;;;17.80;56.60;;;;;;4999589;28;20065;-62
2021/12/18 03:32:50;;;;;;;3.50;2.60;;;17.90;56.60;;;;;;5002890;28;20072;-64
2021/12/18 03:35:16;;;;;;;3.15;2.85;;;17.90;56.60;;;;;;5005217;28;20038;-63
2021/12/18 03:37:42;;;;;;;3.30;2.80;;;17.90;56.70;;;;;;5019779;28;20034;-63
2021/12/18 03:40:10;;;;;;;3.38;3.08;;;17.90;56.60;;;;;;5004804;28;20029;-62
2021/12/18 03:42:35;;;;;;;3.00;2.70;;;17.80;56.60;;;;;;5005668;28;20076;-64
2021/12/18 03:45:01;;;;;;;3.13;2.83;;;17.90;56.60;;;;;;5005046;28;20034;-64
2021/12/18 03:47:26;;;;;;;3.47;2.50;;;17.80;56.60;;;;;;5005608;28;20858;-63
2021/12/18 03:49:52;;;;;;;2.60;2.40;;;17.80;56.60;;;;;;5004710;28;20092;-63
2021/12/18 03:52:17;;;;;;;3.40;3.10;;;17.80;56.60;;;;;;5019967;28;20057;-63
2021/12/18 03:54:43;;;;;;;3.65;2.40;;;17.80;56.60;;;;;;5018909;28;20057;-64
2021/12/18 03:57:08;;;;;;;3.00;2.67;;;17.80;56.60;;;;;;5004201;28;20026;-63
2021/12/18 03:59:34;;;;;;;2.47;2.28;;;17.80;56.70;;;;;;5002697;28;20037;-64
2021/12/18 04:01:59;;;;;;;2.80;2.47;;;17.90;56.60;;;;;;5004237;28;20531;-63
2021/12/18 04:04:25;;;;;;;4.95;3.05;;;17.90;56.60;;;;;;5016164;28;20073;-63
2021/12/18 04:06:50;;;;;;;2.55;2.35;;;17.80;56.70;;;;;;5016552;28;20074;-63
2021/12/18 04:09:16;;;;;;;2.60;2.40;;;17.80;56.60;;;;;;5003427;28;20033;-63
2021/12/18 04:11:41;;;;;;;3.15;2.53;;;17.80;56.60;;;;;;4986157;28;20080;-62
2021/12/18 04:14:07;;;;;;;3.08;2.78;;;17.80;56.60;;;;;;5004854;28;20034;-63
2021/12/18 04:16:33;;;;;;;3.45;2.95;;;17.80;56.60;;;;;;5003593;28;20022;-63
2021/12/18 04:18:59;;;;;;;3.33;3.03;;;17.80;56.60;;;;;;5003637;28;20026;-62
2021/12/18 04:21:25;;;;;;;2.67;2.40;;;17.80;56.60;;;;;;5002703;28;20030;-63
2021/12/18 04:23:50;;;;;;;3.17;2.53;;;17.80;56.60;;;;;;5004248;28;20089;-62
2021/12/18 04:26:16;;;;;;;2.40;2.20;;;17.80;56.60;;;;;;5019675;23;20537;-71
2021/12/18 04:28:41;;;;;;;2.83;2.53;;;17.80;56.60;;;;;;5002929;28;20085;-70
2021/12/18 04:31:06;;;;;;;3.60;2.40;;;17.80;56.60;;;;;;5004677;28;20038;-70
2021/12/18 04:33:32;;;;;;;3.13;2.53;;;17.80;56.50;;;;;;5010376;28;20492;-71
2021/12/18 04:35:57;;;;;;;3.42;2.22;;;17.80;56.60;;;;;;5003541;28;20641;-70
2021/12/18 04:38:23;;;;;;;2.35;2.15;;;17.80;56.50;;;;;;4997745;28;20048;-70
2021/12/18 04:40:50;;;;;;;2.42;2.22;;;17.80;56.60;;;;;;4982413;28;20122;-71
2021/12/18 04:43:15;;;;;;;2.50;2.30;;;17.80;56.70;;;;;;5004243;28;20026;-71
2021/12/18 04:45:41;;;;;;;2.47;2.28;;;17.80;57.10;;;;;;5003271;28;20093;-71
2021/12/18 04:48:06;;;;;;;2.90;2.13;;;17.80;57.10;;;;;;5002518;28;20053;-70
2021/12/18 04:50:32;;;;;;;2.55;2.22;;;17.80;56.40;;;;;;5001962;28;20549;-71
2021/12/18 04:52:57;;;;;;;2.63;2.42;;;17.90;56.40;;;;;;5001658;28;20030;-71
2021/12/18 04:55:23;;;;;;;2.67;2.33;;;17.90;56.40;;;;;;4983643;28;20047;-71
2021/12/18 04:57:49;;;;;;;2.60;2.40;;;17.90;56.30;;;;;;5002464;28;20033;-70
2021/12/18 05:00:15;;;;;;;2.30;2.10;;;17.90;56.30;;;;;;5002866;28;20109;-71
2021/12/18 05:02:42;;;;;;;2.97;2.67;;;17.90;56.20;;;;;;4987209;28;20029;-71
2021/12/18 05:05:08;;;;;;;2.80;2.47;;;17.90;56.20;;;;;;5006166;28;20053;-70
2021/12/18 05:07:34;;;;;;;2.95;2.45;;;18.00;56.80;;;;;;5007806;28;20054;-71
2021/12/18 05:09:59;;;;;;;3.13;2.50;;;17.90;56.10;;;;;;5007784;28;20129;-70
2021/12/18 05:12:25;;;;;;;2.72;2.33;;;18.00;56.10;;;;;;5006505;28;20072;-72
2021/12/18 05:14:50;;;;;;;3.72;2.70;;;18.00;56.10;;;;;;5007948;28;20046;-70
2021/12/18 05:17:16;;;;;;;2.80;2.45;;;18.00;56.10;;;;;;5006638;28;20030;-70
2021/12/18 05:19:42;;;;;;;2.47;2.25;;;18.00;56.00;;;;;;5009353;28;20058;-70
2021/12/18 05:22:07;;;;;;;2.45;2.25;;;18.00;56.00;;;;;;5006239;28;20081;-70
2021/12/18 05:24:33;;;;;;;2.90;2.28;;;18.00;56.00;;;;;;5010566;28;20435;-70
2021/12/18 05:26:58;;;;;;;2.58;2.30;;;18.00;56.00;;;;;;5007509;28;20030;-70
2021/12/18 05:29:24;;;;;;;2.42;2.20;;;18.00;56.00;;;;;;4988098;28;20110;-71
2021/12/18 05:31:49;;;;;;;2.30;2.10;;;18.00;56.00;;;;;;5007046;28;20036;-70
2021/12/18 05:34:21;;;;;;;2.70;2.10;;;18.00;56.00;;;;;;5007681;28;20130;-70
2021/12/18 05:39:23;;;;;;;;;;;18.00;55.90;;;;;;4989030;28;20050;-72
2021/12/18 05:41:50;;;;;;;3.22;2.25;;;18.00;55.90;;;;;;5006247;28;19952;-71
2021/12/18 05:44:17;;;;;;;2.95;2.03;;;18.00;55.90;;;;;;5008947;28;20676;-69
2021/12/18 05:46:42;;;;;;;3.53;2.35;;;18.00;55.90;;;;;;4972500;28;20030;-71
2021/12/18 05:49:08;;;;;;;3.92;2.22;;;18.00;55.90;;;;;;5007419;28;20108;-70
2021/12/18 05:51:33;;;;;;;2.50;2.10;;;18.00;55.90;;;;;;5007074;28;20573;-69
2021/12/18 05:53:59;;;;;;;3.58;2.08;;;18.00;55.90;;;;;;4987794;28;20056;-71
2021/12/18 05:56:24;;;;;;;2.58;2.13;;;18.00;55.90;;;;;;5006142;28;20084;-69
2021/12/18 05:58:50;;;;;;;2.38;2.17;;;18.00;55.90;;;;;;5007089;28;20037;-70
2021/12/18 06:01:15;;;;;;;2.58;2.13;;;18.00;55.90;;;;;;5007270;28;20042;-69
2021/12/18 06:03:41;;;;;;;2.30;2.10;;;18.00;55.90;;;;;;5007327;28;20555;-71
2021/12/18 06:06:07;;;;;;;3.40;2.33;;;18.00;55.90;;;;;;4990266;28;20101;-70
2021/12/18 06:08:34;;;;;;;2.92;2.20;;;18.00;55.90;;;;;;5008761;28;20068;-69
2021/12/18 06:11:06;;;;;;;3.38;2.47;;;18.00;55.90;;;;;;4991201;28;20026;-69
2021/12/18 06:13:31;;;;;;;3.25;2.30;;;17.90;55.80;;;;;;4990723;28;20034;-70
2021/12/18 06:15:57;;;;;;;3.13;2.22;;;18.00;55.90;;;;;;5007378;28;20523;-70
2021/12/18 06:18:22;;;;;;;2.50;2.10;;;18.00;55.90;;;;;;5004835;28;20044;-71
2021/12/18 06:20:47;;;;;;;2.83;1.77;;;17.90;55.80;;;;;;5008895;28;20034;-70
2021/12/18 06:23:13;;;;;;;2.42;2.03;;;18.00;55.90;;;;;;4989657;28;20026;-71
2021/12/18 06:25:38;;;;;;;2.25;2.05;;;18.00;55.80;;;;;;5008317;28;20048;-70
2021/12/18 06:28:04;;;;;;;2.30;2.10;;;18.00;55.80;;;;;;4989077;28;20529;-71
2021/12/18 06:30:30;;;;;;;2.67;2.13;;;18.00;55.80;;;;;;4990428;28;20514;-70
2021/12/18 06:32:55;;;;;;;2.20;1.98;;;18.00;56.30;;;;;;4999719;28;20088;-72
2021/12/18 06:35:21;;;;;;;1.95;1.70;;;18.00;55.70;;;;;;5010663;28;20506;-69
2021/12/18 06:37:46;;;;;;;3.17;1.67;;;18.00;55.70;;;;;;5005790;28;20023;-70
2021/12/18 06:40:12;;;;;;;2.58;2.08;;;18.00;55.60;;;;;;5006580;28;20393;-70
2021/12/18 06:42:38;;;;;;;2.28;2.05;;;18.00;55.70;;;;;;5006183;28;20037;-70
2021/12/18 06:45:04;;;;;;;2.40;2.10;;;18.00;55.60;;;;;;5008614;28;20049;-70
2021/12/18 06:47:30;;;;;;;2.67;2.20;;;18.10;55.50;;;;;;5003682;28;20485;-70
2021/12/18 06:49:55;;;;;;;2.30;2.03;;;18.10;55.50;;;;;;5013404;28;20160;-70
2021/12/18 06:52:21;;;;;;;2.47;1.83;;;18.00;55.50;;;;;;5006718;28;20037;-70
2021/12/18 06:54:46;;;;;;;3.83;2.28;;;18.00;55.50;;;;;;4989790;28;20030;-70
2021/12/18 06:57:12;;;;;;;2.30;1.88;;;18.00;55.50;;;;;;5004992;28;20049;-71
2021/12/18 06:59:37;;;;;;;2.40;1.88;;;18.00;55.50;;;;;;5005998;28;20521;-69
2021/12/18 07:02:03;;;;;;;2.10;1.90;;;18.00;55.40;;;;;;5005784;28;20485;-69
2021/12/18 07:04:28;;;;;;;2.63;2.08;;;18.00;55.40;;;;;;5006485;28;20056;-71
2021/12/18 07:06:54;;;;;;;2.95;2.00;;;18.00;55.40;;;;;;5005825;28;20033;-71
2021/12/18 07:09:20;;;;;;;3.13;2.13;;;18.00;55.50;;;;;;5006431;28;20034;-70
2021/12/18 07:11:45;;;;;;;3.95;2.30;;;18.00;55.50;;;;;;5005033;28;20613;-70
2021/12/18 07:14:12;;;;;;;2.85;1.85;;;18.00;55.50;;;;;;5006131;28;20573;-71
2021/12/18 07:16:38;;;;;;;3.10;2.30;;;18.00;55.50;;;;;;5005479;28;20033;-69
2021/12/18 07:19:03;;;;;;;2.17;1.90;;;18.00;55.60;;;;;;5006411;28;20045;-70
2021/12/18 07:21:29;;;;;;;2.95;1.83;;;18.00;55.60;;;;;;5004969;28;20033;-70
2021/12/18 07:23:54;;;;;;;3.42;1.95;;;18.00;55.60;;;;;;5006285;28;20481;-73
2021/12/18 07:26:20;;;;;;;2.65;2.03;;;18.00;55.60;;;;;;5006252;28;20061;-70
2021/12/18 07:28:45;;;;;;;1.98;1.75;;;18.00;55.60;;;;;;5005652;28;20040;-69
2021/12/18 07:31:11;;;;;;;2.38;1.95;;;18.00;55.60;;;;;;5005465;28;20088;-70
2021/12/18 07:33:40;;;;;;;2.75;2.17;;;18.00;55.60;;;;;;5005828;28;20563;-68
2021/12/18 07:36:07;;;;;;;2.83;1.95;;;18.00;55.60;;;;;;5003982;28;20489;-69
2021/12/18 07:38:33;;;;;;;2.08;1.90;;;18.00;55.60;;;;;;4988953;28;20556;-71
2021/12/18 07:40:59;;;;;;;2.58;2.08;;;18.00;55.60;;;;;;5005452;28;20032;-70
2021/12/18 07:43:24;;;;;;;2.55;1.90;;;18.00;55.70;;;;;;5004375;28;20129;-69
2021/12/18 07:45:50;;;;;;;3.63;2.15;;;17.90;55.70;;;;;;5007188;28;20030;-70
2021/12/18 07:48:15;;;;;;;2.63;2.15;;;17.90;55.70;;;;;;4988943;28;20034;-72
2021/12/18 07:50:41;;;;;;;2.42;1.85;;;18.00;55.70;;;;;;5007060;28;20803;-70
2021/12/18 07:53:06;;;;;;;2.78;2.08;;;17.90;55.80;;;;;;5002880;28;20025;-70
2021/12/18 07:55:32;;;;;;;3.22;2.38;;;18.00;55.80;;;;;;5006022;28;20504;-71
2021/12/18 07:57:57;;;;;;;7.00;2.20;;;18.00;55.90;;;;;;5004963;28;20088;-70
2021/12/18 08:00:23;;;;;;;5.38;2.35;;;17.90;55.90;;;;;;4985937;28;20727;-71
2021/12/18 08:02:48;;;;;;;2.85;1.90;;;17.90;56.00;;;;;;5004056;28;20065;-72
2021/12/18 08:05:14;;;;;;;4.78;2.42;;;18.00;56.10;;;;;;5005958;28;20479;-70
2021/12/18 08:07:40;;;;;;;4.75;2.35;;;18.00;56.10;;;;;;5003053;28;20049;-69
2021/12/18 08:10:06;;;;;;;2.85;2.30;;;18.00;56.10;;;;;;5013640;28;20040;-70
2021/12/18 08:12:32;;;;;;;2.38;2.17;;;18.00;56.10;;;;;;4988507;28;20113;-69
2021/12/18 08:14:58;;;;;;;4.45;2.05;;;18.00;56.10;;;;;;5006744;28;20033;-69
2021/12/18 08:17:24;;;;;;;2.60;2.13;;;18.00;56.00;;;;;;4982173;28;20084;-71
2021/12/18 08:19:49;;;;;;;5.22;1.67;;;18.00;56.00;;;;;;4999727;28;20034;-70
2021/12/18 08:22:15;;;;;;;4.70;1.90;;;18.00;56.00;;;;;;4972605;28;20022;-71
2021/12/18 08:24:40;;;;;;;5.50;1.92;;;18.10;56.10;;;;;;5016539;28;20022;-71
2021/12/18 08:27:06;;;;;;;5.53;1.88;;;18.00;56.10;;;;;;4997742;28;20532;-70
2021/12/18 08:29:31;;;;;;;5.43;2.20;;;18.00;56.10;;;;;;4987703;28;20038;-75
2021/12/18 08:31:57;;;;;;;15.80;2.10;;;18.10;56.20;;;;;;4998089;28;20098;-71
2021/12/18 08:34:23;;;;;;;4.88;2.13;;;18.10;56.30;;;;;;5015518;28;20654;-74
2021/12/18 08:36:49;;;;;;;9.20;2.50;;;18.00;56.40;;;;;;4985008;28;20497;-72
2021/12/18 08:39:14;;;;;;;9.10;2.42;;;18.10;56.50;;;;;;5004950;28;20045;-73
2021/12/18 08:41:42;;;;;;;7.05;2.38;;;18.10;56.40;;;;;;5007579;28;20041;-72
2021/12/18 08:44:07;;;;;;;5.85;2.63;;;18.10;56.10;;;;;;5010095;28;20112;-72
2021/12/18 08:46:33;;;;;;;6.85;2.50;;;18.00;55.90;;;;;;4989389;28;20079;-73
2021/12/18 08:48:59;;;;;;;5.72;2.35;;;18.00;55.70;;;;;;4998852;28;20038;-72
2021/12/18 08:51:24;;;;;;;7.57;2.70;;;18.00;55.50;;;;;;5008089;28;20052;-72
2021/12/18 08:53:50;;;;;;;5.53;2.40;;;18.00;55.30;;;;;;5008231;28;20440;-72
2021/12/18 08:56:15;;;;;;;5.25;2.58;;;18.00;55.20;;;;;;5007722;28;20095;-72
2021/12/18 08:58:41;;;;;;;3.30;2.17;;;18.00;55.10;;;;;;5009539;28;20054;-72
2021/12/18 09:01:06;;;;;;;2.88;1.92;;;18.00;55.00;;;;;;5008297;28;20033;-71
2021/12/18 09:03:32;;;;;;;4.15;2.10;;;18.00;55.00;;;;;;5009874;28;20629;-71
2021/12/18 09:05:57;;;;;;;4.75;2.20;;;18.00;54.90;;;;;;5010360;28;20045;-71
2021/12/18 09:08:23;;;;;;;6.93;2.10;;;18.00;55.60;;;;;;4989637;28;20038;-71
2021/12/18 09:10:49;;;;;;;3.92;2.25;;;17.90;54.90;;;;;;5005886;28;20076;-72
2021/12/18 09:13:14;;;;;;;3.88;1.77;;;18.00;55.10;;;;;;5006991;28;20566;-71
2021/12/18 09:15:40;;;;;;;5.93;2.25;;;18.00;55.00;;;;;;5006039;28;20382;-72
2021/12/18 09:18:06;;;;;;;6.38;2.40;;;18.00;55.30;;;;;;5008270;28;20033;-71
2021/12/18 09:20:31;;;;;;;3.58;2.38;;;18.00;55.30;;;;;;4985427;28;20164;-72
2021/12/18 09:22:59;;;;;;;14.05;5.95;;;18.00;55.30;;;;;;4983243;28;20042;-73
2021/12/18 09:25:25;;;;;;;7.47;4.75;;;18.00;55.80;;;;;;5004539;28;20476;-78
2021/12/18 09:27:50;;;;;;;8.10;4.43;;;18.00;55.70;;;;;;4995061;28;20061;-76
2021/12/18 09:30:16;;;;;;;10.63;4.03;;;18.00;55.60;;;;;;4994740;28;20070;-77
2021/12/18 09:32:41;;;;;;;4.75;3.60;;;18.00;55.60;;;;;;5014700;28;20033;-79
2021/12/18 09:35:08;;;;;;;11.02;4.15;;;18.00;55.60;;;;;;4994353;28;20389;-78
2021/12/18 09:37:33;;;;;;;5.57;3.38;;;17.90;56.20;;;;;;5010342;28;20052;-76
2021/12/18 09:39:59;;;;;;;6.03;3.97;;;17.90;55.60;;;;;;5003661;28;20113;-77
2021/12/18 09:42:24;;;;;;;7.18;3.83;;;17.90;55.70;;;;;;4975094;28;20034;-77
2021/12/18 09:44:50;;;;;;;6.55;4.00;;;17.90;55.80;;;;;;5003244;28;20022;-78
2021/12/18 09:47:15;;;;;;;6.35;4.07;;;17.90;55.80;;;;;;4987789;28;20262;-74
2021/12/18 09:49:41;;;;;;;43.50;19.73;;;17.80;56.40;;;;;;5008969;28;20026;-76
2021/12/18 09:52:06;;;;;;;55.10;24.88;;;17.80;56.70;;;;;;5016268;22;20412;-58
2021/12/18 09:54:32;;;;;;;55.58;23.48;;;17.80;56.90;;;;;;5013815;28;20084;-56
2021/12/18 09:56:58;;;;;;;106.00;43.40;;;17.80;57.10;;;;;;5005017;28;20485;-54
2021/12/18 09:59:23;;;;;;;96.20;45.35;;;17.80;57.70;;;;;;5005299;28;20068;-54
2021/12/18 10:01:49;;;;;;;112.03;47.40;;;17.80;58.10;;;;;;5007031;28;20033;-57
2021/12/18 10:04:23;;;;;;;110.22;46.45;;;17.80;58.30;;;;;;5008545;28;20030;-59
2021/12/18 10:06:48;;;;;;;103.47;44.20;;;17.80;58.40;;;;;;5007572;28;20485;-55
2021/12/18 10:09:30;;;;;;;89.75;42.35;;;17.80;58.50;;;;;;5008326;28;20053;-53
2021/12/18 10:12:02;;;;;;;87.82;41.08;;;17.70;58.40;;;;;;5005776;28;20038;-55
2021/12/18 10:14:35;;;;;;;84.68;39.97;;;17.80;58.60;;;;;;5007830;28;20030;-58
2021/12/18 10:17:01;;;;;;;87.97;39.08;;;17.70;58.50;;;;;;5007260;28;20038;-58
2021/12/18 10:19:29;;;;;;;80.03;35.33;;;17.70;58.60;;;;;;5005775;28;20428;-55
2021/12/18 10:21:56;;;;;;;89.38;38.70;;;17.70;58.50;;;;;;5007204;28;20053;-56
2021/12/18 10:24:22;;;;;;;78.07;34.78;;;17.70;58.60;;;;;;5006391;28;20604;-59
2021/12/18 10:26:47;;;;;;;80.03;34.28;;;17.70;58.50;;;;;;5018811;22;20053;-55
2021/12/18 10:29:42;;;;;;;70.22;32.20;;;17.70;58.50;;;;;;5006618;28;20026;-57
2021/12/18 10:32:09;;;;;;;67.45;30.95;;;17.70;58.60;;;;;;4999727;28;20061;-50
2021/12/18 10:34:35;;;;;;;70.05;31.13;;;17.70;58.60;;;;;;4999918;28;20099;-52
2021/12/18 10:37:17;;;;;;;63.58;29.15;;;17.70;58.40;;;;;;4995712;28;20076;-50
2021/12/18 10:39:55;;;;;;;58.88;27.08;;;17.70;58.60;;;;;;4998520;28;20042;-52
2021/12/18 10:42:30;;;;;;;66.68;28.58;;;17.70;58.50;;;;;;5002006;28;20147;-55
2021/12/18 10:45:03;;;;;;;;;;;17.70;58.50;;;;;;5006475;28;20030;-55
2021/12/18 10:48:02;;;;;;;49.78;23.85;;;17.70;58.40;;;;;;5005171;28;20355;-55
2021/12/18 10:50:31;;;;;;;50.05;23.85;;;17.70;58.50;;;;;;4959309;28;20033;-55
2021/12/18 10:53:05;;;;;;;52.03;23.23;;;17.70;58.40;;;;;;5005429;28;20033;-52
2021/12/18 10:55:39;;;;;;;49.50;24.50;;;17.70;58.40;;;;;;5005295;28;20781;-58
2021/12/18 10:58:07;;;;;;;49.10;22.33;;;17.70;58.40;;;;;;5005908;28;20034;-52
2021/12/18 11:00:37;;;;;;;44.08;21.88;;;17.70;58.50;;;;;;5005109;28;20034;-53
2021/12/18 11:03:33;;;;;;;44.67;19.65;;;17.70;58.40;;;;;;5003774;28;20030;-56
2021/12/18 11:06:04;;;;;;;42.07;19.77;;;17.70;58.30;;;;;;5004743;28;20026;-54
2021/12/18 11:08:30;;;;;;;39.58;19.00;;;17.70;58.30;;;;;;5004429;28;20037;-56
2021/12/18 11:13:38;;;;;;;44.95;18.88;;;17.70;58.40;;;;;;5001561;28;20400;-53
2021/12/18 11:13:48;;;;;;;37.25;19.15;;;17.70;58.40;;;;;;5006327;28;20034;-55
2021/12/18 11:16:16;;;;;;;38.53;17.65;;;17.70;58.40;;;;;;5007771;28;20029;-59
2021/12/18 11:18:41;;;;;;;33.38;17.35;;;17.70;58.60;;;;;;4980468;28;20136;-60
2021/12/18 11:21:07;;;;;;;37.38;17.90;;;17.80;58.70;;;;;;4998421;28;20627;-59
2021/12/18 11:23:51;;;;;;;29.65;15.23;;;17.80;58.90;;;;;;5004078;28;20073;-54
2021/12/18 11:26:16;;;;;;;36.22;16.73;;;17.80;59.00;;;;;;4998692;28;20707;-52
2021/12/18 11:28:43;;;;;;;34.03;15.82;;;17.80;58.80;;;;;;4986095;28;20049;-55
2021/12/18 11:31:09;;;;;;;33.75;14.45;;;17.80;59.40;;;;;;5000596;28;20034;-54
2021/12/18 11:33:35;;;;;;;29.25;13.82;;;17.80;58.60;;;;;;5001753;28;20054;-51
2021/12/18 11:36:03;;;;;;;30.77;13.77;;;17.90;58.60;;;;;;5003696;28;20049;-55
2021/12/18 11:38:29;;;;;;;30.33;13.25;;;17.90;58.60;;;;;;5002646;28;20022;-54
2021/12/18 11:40:54;;;;;;;24.30;12.18;;;17.90;58.40;;;;;;4984538;28;20057;-52
2021/12/18 11:43:53;;;;;;;29.45;12.48;;;17.90;58.30;;;;;;5003231;28;20489;-54
2021/12/18 11:46:37;;;;;;;25.77;13.48;;;17.90;58.20;;;;;;4979729;28;20387;-53
2021/12/18 11:49:07;;;;;;;20.92;10.70;;;17.90;58.20;;;;;;5000518;28;20889;-54
2021/12/18 11:51:32;;;;;;;22.00;11.40;;;17.90;58.20;;;;;;4999025;28;20037;-54
2021/12/18 11:53:58;;;;;;;21.77;10.75;;;17.90;58.20;;;;;;5002974;28;20022;-56
2021/12/18 11:56:24;;;;;;;23.50;10.65;;;17.90;58.20;;;;;;5003745;28;20041;-56
2021/12/18 11:58:50;;;;;;;21.65;11.13;;;18.00;58.30;;;;;;4982277;28;20042;-51
2021/12/18 12:01:19;;;;;;;21.67;10.55;;;18.00;58.30;;;;;;5003042;28;20560;-54
2021/12/18 12:03:51;;;;;;;18.90;9.85;;;18.00;58.60;;;;;;5002734;28;20049;-54
2021/12/18 12:06:28;;;;;;;19.67;8.75;;;18.10;58.50;;;;;;5003263;28;20104;-50
2021/12/18 12:09:09;;;;;;;19.90;9.05;;;18.20;58.70;;;;;;5001781;28;20401;-51
2021/12/18 12:12:02;;;;;;;22.48;9.32;;;18.20;58.60;;;;;;5002700;28;20030;-51
2021/12/18 12:14:35;;;;;;;17.15;8.52;;;18.30;58.80;;;;;;4983773;28;20037;-52
2021/12/18 12:17:27;;;;;;;19.15;8.43;;;18.30;58.90;;;;;;5001310;28;20658;-51
2021/12/18 12:20:00;;;;;;;14.15;8.10;;;18.20;59.00;;;;;;4998950;28;20022;-53
2021/12/18 12:22:35;;;;;;;16.40;8.20;;;18.20;59.00;;;;;;5003123;28;20516;-57
2021/12/18 12:25:01;;;;;;;19.13;10.70;;;18.20;59.30;;;;;;5003463;28;20728;-57
2021/12/18 12:27:28;;;;;;;33.63;16.13;;;18.20;59.50;;;;;;5002183;28;20045;-48
2021/12/18 12:29:54;;;;;;;38.78;19.38;;;18.20;59.90;;;;;;5003625;28;20700;-54
2021/12/18 12:32:20;;;;;;;49.08;20.27;;;18.20;60.30;;;;;;5001783;28;20029;-51
2021/12/18 12:35:06;;;;;;;44.75;19.73;;;18.20;60.90;;;;;;4986593;28;20661;-53
2021/12/18 12:37:37;;;;;;;;;;;18.20;60.90;;;;;;5002445;28;20193;-57
2021/12/18 12:40:09;;;;;;;35.97;18.40;;;18.20;60.90;;;;;;5002624;28;19917;-55
2021/12/18 12:42:35;;;;;;;35.45;17.45;;;18.20;60.90;;;;;;5002528;28;20142;-53
2021/12/18 12:45:09;;;;;;;35.92;15.60;;;18.20;60.90;;;;;;5002888;28;20634;-53
2021/12/18 12:47:34;;;;;;;32.28;16.73;;;18.10;60.90;;;;;;5001180;28;20452;-52
2021/12/18 12:50:21;;;;;;;33.08;16.00;;;18.10;60.80;;;;;;5002607;28;20101;-49
2021/12/18 12:53:00;;;;;;;30.23;15.18;;;18.10;60.70;;;;;;5002550;28;20026;-58
2021/12/18 12:55:27;;;;;;;27.45;14.70;;;18.10;60.50;;;;;;5000901;28;20119;-53
2021/12/18 12:57:55;;;;;;;27.98;14.55;;;18.10;60.40;;;;;;5001309;28;20026;-53
2021/12/18 13:00:23;;;;;;;29.23;13.75;;;18.10;60.30;;;;;;5002243;28;20026;-53
2021/12/18 13:02:58;;;;;;;25.45;12.73;;;18.00;60.20;;;;;;5002710;28;20034;-55
2021/12/18 13:05:25;;;;;;;21.95;10.77;;;18.00;60.00;;;;;;5000866;28;20026;-50
2021/12/18 13:07:52;;;;;;;22.23;11.43;;;18.00;59.80;;;;;;5000815;28;20080;-50
2021/12/18 13:10:24;;;;;;;24.17;11.27;;;18.00;59.70;;;;;;5000301;28;20120;-55
2021/12/18 13:12:57;;;;;;;23.15;10.05;;;18.00;59.70;;;;;;5002079;28;20568;-53
2021/12/18 13:15:23;;;;;;;18.08;10.05;;;18.00;59.60;;;;;;4985333;28;20057;-51
2021/12/18 13:18:03;;;;;;;22.33;10.75;;;18.00;59.40;;;;;;5001199;28;20596;-56
2021/12/18 13:20:28;;;;;;;22.33;11.88;;;18.00;59.40;;;;;;4985027;28;20034;-51
2021/12/18 13:22:54;;;;;;;24.10;10.85;;;18.00;59.30;;;;;;5002080;28;20018;-54